sensor_id;sensor_type;location;lat;lon;timestamp;P1;durP1;ratioP1;P2;durP2;ratioP2
58972;SDS011;44750;52.040;7.472;2023-01-10T00:01:44;3.30;;;1.65;;
58972;SDS011;44750;52.040;7.472;2023-01-10T00:06:45;2.67;;;1.38;;
58972;SDS011;44750;52.040;7.472;2023-01-10T00:11:45;1.35;;;1.25;;
58972;SDS011;44750;52.040;7.472;2023-01-10T00:16:45;3.13;;;1.93;;
58972;SDS011;44750;52.040;7.472;2023-01-10T00:21:45;1.88;;;1.35;;
58972;SDS011;44750;52.040;7.472;2023-01-10T00:26:46;2.00;;;1.10;;
58972;SDS011;44750;52.040;7.472;2023-01-10T00:31:47;1.40;;;1.30;;
58972;SDS011;44750;52.040;7.472;2023-01-10T00:36:49;4.20;;;1.60;;
58972;SDS011;44750;52.040;7.472;2023-01-10T00:41:49;2.25;;;1.50;;
58972;SDS011;44750;52.040;7.472;2023-01-10T00:46:49;1.70;;;1.30;;
58972;SDS011;44750;52.040;7.472;2023-01-10T00:51:50;1.50;;;1.30;;
58972;SDS011;44750;52.040;7.472;2023-01-10T00:56:50;3.55;;;1.30;;
58972;SDS011;44750;52.040;7.472;2023-01-10T01:01:51;1.30;;;1.08;;
58972;SDS011;44750;52.040;7.472;2023-01-10T01:06:51;2.55;;;1.60;;
58972;SDS011;44750;52.040;7.472;2023-01-10T01:11:51;6.30;;;1.98;;
58972;SDS011;44750;52.040;7.472;2023-01-10T01:16:52;1.23;;;1.13;;
58972;SDS011;44750;52.040;7.472;2023-01-10T01:21:52;35.80;;;2.70;;
58972;SDS011;44750;52.040;7.472;2023-01-10T01:26:52;2.13;;;1.67;;
58972;SDS011;44750;52.040;7.472;2023-01-10T01:31:52;2.97;;;2.15;;
58972;SDS011;44750;52.040;7.472;2023-01-10T01:36:52;9.77;;;2.08;;
58972;SDS011;44750;52.040;7.472;2023-01-10T01:41:53;12.10;;;2.97;;
58972;SDS011;44750;52.040;7.472;2023-01-10T01:47:01;11.27;;;1.42;;
58972;SDS011;44750;52.040;7.472;2023-01-10T01:52:10;2.47;;;1.40;;
58972;SDS011;44750;52.040;7.472;2023-01-10T01:57:18;2.15;;;1.38;;
58972;SDS011;44750;52.040;7.472;2023-01-10T02:02:28;4.93;;;2.95;;
58972;SDS011;44750;52.040;7.472;2023-01-10T02:07:33;3.88;;;1.88;;
58972;SDS011;44750;52.040;7.472;2023-01-10T02:12:36;5.47;;;2.65;;
58972;SDS011;44750;52.040;7.472;2023-01-10T02:17:37;3.30;;;1.67;;
58972;SDS011;44750;52.040;7.472;2023-01-10T02:33:30;4.57;;;1.77;;
58972;SDS011;44750;52.040;7.472;2023-01-10T02:44:11;2.30;;;1.63;;
58972;SDS011;44750;52.040;7.472;2023-01-10T02:49:17;1.92;;;1.45;;
58972;SDS011;44750;52.040;7.472;2023-01-10T02:54:25;1.85;;;1.42;;
58972;SDS011;44750;52.040;7.472;2023-01-10T03:10:18;2.83;;;1.73;;
58972;SDS011;44750;52.040;7.472;2023-01-10T03:15:27;2.22;;;1.60;;
58972;SDS011;44750;52.040;7.472;2023-01-10T03:20:31;2.28;;;1.63;;
58972;SDS011;44750;52.040;7.472;2023-01-10T04:04:59;1.13;;;0.93;;
58972;SDS011;44750;52.040;7.472;2023-01-10T04:10:02;1.17;;;1.00;;
58972;SDS011;44750;52.040;7.472;2023-01-10T04:15:03;1.10;;;1.00;;
58972;SDS011;44750;52.040;7.472;2023-01-10T04:20:04;2.72;;;1.35;;
58972;SDS011;44750;52.040;7.472;2023-01-10T04:25:05;2.53;;;1.55;;
58972;SDS011;44750;52.040;7.472;2023-01-10T04:30:06;3.83;;;1.77;;
58972;SDS011;44750;52.040;7.472;2023-01-10T04:35:07;2.90;;;1.63;;
58972;SDS011;44750;52.040;7.472;2023-01-10T04:40:08;2.92;;;1.23;;
58972;SDS011;44750;52.040;7.472;2023-01-10T04:45:09;3.20;;;1.35;;
58972;SDS011;44750;52.040;7.472;2023-01-10T04:50:10;3.50;;;1.85;;
58972;SDS011;44750;52.040;7.472;2023-01-10T04:55:10;2.22;;;1.80;;
58972;SDS011;44750;52.040;7.472;2023-01-10T05:00:11;3.72;;;1.40;;
58972;SDS011;44750;52.040;7.472;2023-01-10T05:05:12;3.15;;;1.65;;
58972;SDS011;44750;52.040;7.472;2023-01-10T05:10:13;2.53;;;1.15;;
58972;SDS011;44750;52.040;7.472;2023-01-10T05:15:13;1.90;;;1.58;;
58972;SDS011;44750;52.040;7.472;2023-01-10T05:20:13;3.47;;;2.40;;
58972;SDS011;44750;52.040;7.472;2023-01-10T05:25:14;6.70;;;2.80;;
58972;SDS011;44750;52.040;7.472;2023-01-10T05:30:14;3.87;;;2.50;;
58972;SDS011;44750;52.040;7.472;2023-01-10T05:35:14;4.27;;;2.60;;
58972;SDS011;44750;52.040;7.472;2023-01-10T05:40:14;3.55;;;2.17;;
58972;SDS011;44750;52.040;7.472;2023-01-10T05:45:15;8.37;;;3.00;;
58972;SDS011;44750;52.040;7.472;2023-01-10T05:50:15;4.47;;;3.60;;
58972;SDS011;44750;52.040;7.472;2023-01-10T05:55:15;8.73;;;4.87;;
58972;SDS011;44750;52.040;7.472;2023-01-10T06:00:16;3.77;;;2.40;;
58972;SDS011;44750;52.040;7.472;2023-01-10T06:05:17;3.22;;;2.00;;
58972;SDS011;44750;52.040;7.472;2023-01-10T06:10:17;7.00;;;3.40;;
58972;SDS011;44750;52.040;7.472;2023-01-10T06:15:17;3.85;;;2.20;;
58972;SDS011;44750;52.040;7.472;2023-01-10T06:20:17;2.35;;;1.65;;
58972;SDS011;44750;52.040;7.472;2023-01-10T06:25:17;3.75;;;2.13;;
58972;SDS011;44750;52.040;7.472;2023-01-10T06:30:18;13.50;;;3.67;;
58972;SDS011;44750;52.040;7.472;2023-01-10T06:35:18;2.87;;;1.93;;
58972;SDS011;44750;52.040;7.472;2023-01-10T06:40:18;3.10;;;2.13;;
58972;SDS011;44750;52.040;7.472;2023-01-10T06:45:19;6.33;;;3.53;;
58972;SDS011;44750;52.040;7.472;2023-01-10T06:50:20;2.10;;;1.52;;
58972;SDS011;44750;52.040;7.472;2023-01-10T06:55:20;2.05;;;1.73;;
58972;SDS011;44750;52.040;7.472;2023-01-10T07:00:21;2.33;;;1.50;;
58972;SDS011;44750;52.040;7.472;2023-01-10T07:05:21;9.93;;;2.88;;
58972;SDS011;44750;52.040;7.472;2023-01-10T07:10:22;5.77;;;2.00;;
58972;SDS011;44750;52.040;7.472;2023-01-10T07:15:22;5.28;;;1.75;;
58972;SDS011;44750;52.040;7.472;2023-01-10T07:20:22;2.75;;;1.98;;
58972;SDS011;44750;52.040;7.472;2023-01-10T07:25:23;2.28;;;1.58;;
58972;SDS011;44750;52.040;7.472;2023-01-10T07:30:23;7.88;;;2.33;;
58972;SDS011;44750;52.040;7.472;2023-01-10T07:35:24;3.88;;;1.60;;
58972;SDS011;44750;52.040;7.472;2023-01-10T07:40:25;3.10;;;1.83;;
58972;SDS011;44750;52.040;7.472;2023-01-10T07:45:26;3.25;;;2.28;;
58972;SDS011;44750;52.040;7.472;2023-01-10T07:50:28;4.57;;;2.25;;
58972;SDS011;44750;52.040;7.472;2023-01-10T07:55:29;4.15;;;2.30;;
58972;SDS011;44750;52.040;7.472;2023-01-10T08:00:30;11.38;;;2.90;;
58972;SDS011;44750;52.040;7.472;2023-01-10T08:05:30;3.95;;;1.73;;
58972;SDS011;44750;52.040;7.472;2023-01-10T08:10:32;4.70;;;2.35;;
58972;SDS011;44750;52.040;7.472;2023-01-10T08:15:33;5.95;;;2.80;;
58972;SDS011;44750;52.040;7.472;2023-01-10T08:20:33;4.60;;;2.58;;
58972;SDS011;44750;52.040;7.472;2023-01-10T08:25:33;7.40;;;2.95;;
58972;SDS011;44750;52.040;7.472;2023-01-10T08:30:34;2.78;;;1.75;;
58972;SDS011;44750;52.040;7.472;2023-01-10T08:35:37;2.63;;;1.77;;
58972;SDS011;44750;52.040;7.472;2023-01-10T08:40:41;1.85;;;1.35;;
58972;SDS011;44750;52.040;7.472;2023-01-10T08:45:42;11.33;;;2.63;;
58972;SDS011;44750;52.040;7.472;2023-01-10T08:50:42;3.33;;;2.22;;
58972;SDS011;44750;52.040;7.472;2023-01-10T08:55:42;3.83;;;2.10;;
58972;SDS011;44750;52.040;7.472;2023-01-10T09:00:42;5.45;;;2.45;;
58972;SDS011;44750;52.040;7.472;2023-01-10T09:05:42;2.10;;;1.30;;
58972;SDS011;44750;52.040;7.472;2023-01-10T09:10:43;6.13;;;2.15;;
58972;SDS011;44750;52.040;7.472;2023-01-10T09:15:43;13.45;;;2.45;;
58972;SDS011;44750;52.040;7.472;2023-01-10T09:20:43;5.03;;;3.25;;
58972;SDS011;44750;52.040;7.472;2023-01-10T09:25:44;6.80;;;3.17;;
58972;SDS011;44750;52.040;7.472;2023-01-10T09:30:44;2.33;;;1.45;;
58972;SDS011;44750;52.040;7.472;2023-01-10T09:35:45;3.97;;;2.25;;
58972;SDS011;44750;52.040;7.472;2023-01-10T09:56:38;6.88;;;3.53;;
58972;SDS011;44750;52.040;7.472;2023-01-10T10:01:39;3.55;;;2.17;;
58972;SDS011;44750;52.040;7.472;2023-01-10T10:06:39;5.55;;;1.85;;
58972;SDS011;44750;52.040;7.472;2023-01-10T10:11:45;5.13;;;2.80;;
58972;SDS011;44750;52.040;7.472;2023-01-10T10:16:56;4.20;;;1.98;;
58972;SDS011;44750;52.040;7.472;2023-01-10T10:42:52;3.30;;;1.58;;
58972;SDS011;44750;52.040;7.472;2023-01-10T10:48:02;7.25;;;2.33;;
58972;SDS011;44750;52.040;7.472;2023-01-10T10:53:12;2.40;;;1.55;;
58972;SDS011;44750;52.040;7.472;2023-01-10T10:58:15;2.60;;;1.80;;
58972;SDS011;44750;52.040;7.472;2023-01-10T11:03:24;4.18;;;2.25;;
58972;SDS011;44750;52.040;7.472;2023-01-10T11:08:28;9.07;;;1.73;;
58972;SDS011;44750;52.040;7.472;2023-01-10T11:18:32;3.78;;;1.92;;
58972;SDS011;44750;52.040;7.472;2023-01-10T11:28:39;9.27;;;3.25;;
58972;SDS011;44750;52.040;7.472;2023-01-10T11:33:41;7.72;;;2.70;;
58972;SDS011;44750;52.040;7.472;2023-01-10T11:38:41;6.65;;;2.38;;
58972;SDS011;44750;52.040;7.472;2023-01-10T11:43:42;7.40;;;3.22;;
58972;SDS011;44750;52.040;7.472;2023-01-10T11:49:02;6.50;;;3.30;;
58972;SDS011;44750;52.040;7.472;2023-01-10T11:54:11;7.63;;;2.85;;
58972;SDS011;44750;52.040;7.472;2023-01-10T11:59:15;13.48;;;2.33;;
58972;SDS011;44750;52.040;7.472;2023-01-10T12:04:17;6.00;;;2.30;;
58972;SDS011;44750;52.040;7.472;2023-01-10T12:14:40;5.45;;;3.00;;
58972;SDS011;44750;52.040;7.472;2023-01-10T12:19:40;3.33;;;2.35;;
58972;SDS011;44750;52.040;7.472;2023-01-10T12:24:44;8.80;;;3.08;;
58972;SDS011;44750;52.040;7.472;2023-01-10T12:29:55;9.27;;;2.88;;
58972;SDS011;44750;52.040;7.472;2023-01-10T12:35:09;5.60;;;3.00;;
58972;SDS011;44750;52.040;7.472;2023-01-10T12:45:39;16.30;;;2.63;;
58972;SDS011;44750;52.040;7.472;2023-01-10T12:50:46;2.83;;;1.98;;
58972;SDS011;44750;52.040;7.472;2023-01-10T12:55:54;11.20;;;2.50;;
58972;SDS011;44750;52.040;7.472;2023-01-10T13:01:03;25.33;;;3.35;;
58972;SDS011;44750;52.040;7.472;2023-01-10T13:06:06;4.13;;;2.17;;
58972;SDS011;44750;52.040;7.472;2023-01-10T13:11:07;7.63;;;1.80;;
58972;SDS011;44750;52.040;7.472;2023-01-10T13:21:41;16.23;;;2.13;;
58972;SDS011;44750;52.040;7.472;2023-01-10T13:26:49;3.75;;;1.95;;
58972;SDS011;44750;52.040;7.472;2023-01-10T13:31:52;3.15;;;1.67;;
58972;SDS011;44750;52.040;7.472;2023-01-10T13:36:56;2.38;;;1.50;;
58972;SDS011;44750;52.040;7.472;2023-01-10T13:46:59;4.90;;;1.48;;
58972;SDS011;44750;52.040;7.472;2023-01-10T13:58:03;3.42;;;1.45;;
58972;SDS011;44750;52.040;7.472;2023-01-10T14:02:57;2.83;;;1.75;;
58972;SDS011;44750;52.040;7.472;2023-01-10T14:07:57;2.92;;;1.55;;
58972;SDS011;44750;52.040;7.472;2023-01-10T14:12:59;11.30;;;1.92;;
58972;SDS011;44750;52.040;7.472;2023-01-10T14:18:06;12.80;;;2.17;;
58972;SDS011;44750;52.040;7.472;2023-01-10T14:23:24;1.50;;;1.10;;
58972;SDS011;44750;52.040;7.472;2023-01-10T14:28:31;8.07;;;2.00;;
58972;SDS011;44750;52.040;7.472;2023-01-10T14:33:34;4.70;;;2.25;;
58972;SDS011;44750;52.040;7.472;2023-01-10T14:38:36;13.07;;;2.00;;
58972;SDS011;44750;52.040;7.472;2023-01-10T14:43:38;9.45;;;2.35;;
58972;SDS011;44750;52.040;7.472;2023-01-10T14:49:18;3.08;;;1.42;;
58972;SDS011;44750;52.040;7.472;2023-01-10T14:54:20;1.75;;;1.42;;
58972;SDS011;44750;52.040;7.472;2023-01-10T14:59:24;3.15;;;1.45;;
58972;SDS011;44750;52.040;7.472;2023-01-10T15:04:29;1.52;;;0.90;;
58972;SDS011;44750;52.040;7.472;2023-01-10T15:09:31;5.00;;;1.80;;
58972;SDS011;44750;52.040;7.472;2023-01-10T15:14:32;3.78;;;1.48;;
58972;SDS011;44750;52.040;7.472;2023-01-10T15:19:35;3.10;;;1.45;;
58972;SDS011;44750;52.040;7.472;2023-01-10T15:24:38;2.33;;;1.43;;
58972;SDS011;44750;52.040;7.472;2023-01-10T15:29:38;3.28;;;1.63;;
58972;SDS011;44750;52.040;7.472;2023-01-10T15:34:40;1.70;;;1.02;;
58972;SDS011;44750;52.040;7.472;2023-01-10T15:39:41;16.10;;;1.80;;
58972;SDS011;44750;52.040;7.472;2023-01-10T15:44:50;5.63;;;1.60;;
58972;SDS011;44750;52.040;7.472;2023-01-10T15:49:51;7.18;;;1.00;;
58972;SDS011;44750;52.040;7.472;2023-01-10T15:54:52;5.22;;;0.90;;
58972;SDS011;44750;52.040;7.472;2023-01-10T15:59:52;2.47;;;1.35;;
58972;SDS011;44750;52.040;7.472;2023-01-10T16:04:57;5.90;;;1.83;;
58972;SDS011;44750;52.040;7.472;2023-01-10T16:15:26;2.78;;;1.23;;
58972;SDS011;44750;52.040;7.472;2023-01-10T16:20:29;5.50;;;1.33;;
58972;SDS011;44750;52.040;7.472;2023-01-10T16:25:32;3.13;;;1.45;;
58972;SDS011;44750;52.040;7.472;2023-01-10T16:35:36;2.97;;;1.13;;
58972;SDS011;44750;52.040;7.472;2023-01-10T16:40:37;2.03;;;1.65;;
58972;SDS011;44750;52.040;7.472;2023-01-10T16:45:39;4.28;;;1.60;;
58972;SDS011;44750;52.040;7.472;2023-01-10T16:50:40;2.77;;;1.40;;
58972;SDS011;44750;52.040;7.472;2023-01-10T16:55:45;3.47;;;1.65;;
58972;SDS011;44750;52.040;7.472;2023-01-10T17:00:47;0.77;;;0.77;;
58972;SDS011;44750;52.040;7.472;2023-01-10T17:05:50;2.00;;;0.98;;
58972;SDS011;44750;52.040;7.472;2023-01-10T17:10:52;2.20;;;1.17;;
58972;SDS011;44750;52.040;7.472;2023-01-10T17:15:58;5.45;;;2.05;;
58972;SDS011;44750;52.040;7.472;2023-01-10T17:20:59;3.20;;;0.95;;
58972;SDS011;44750;52.040;7.472;2023-01-10T17:26:00;2.72;;;1.60;;
58972;SDS011;44750;52.040;7.472;2023-01-10T17:31:04;2.92;;;1.63;;
58972;SDS011;44750;52.040;7.472;2023-01-10T17:36:04;9.90;;;1.35;;
58972;SDS011;44750;52.040;7.472;2023-01-10T17:41:05;1.58;;;1.30;;
58972;SDS011;44750;52.040;7.472;2023-01-10T17:46:05;1.57;;;1.23;;
58972;SDS011;44750;52.040;7.472;2023-01-10T17:51:05;1.92;;;1.20;;
58972;SDS011;44750;52.040;7.472;2023-01-10T17:56:05;1.00;;;0.90;;
58972;SDS011;44750;52.040;7.472;2023-01-10T18:01:12;1.23;;;0.95;;
58972;SDS011;44750;52.040;7.472;2023-01-10T18:06:16;1.45;;;1.13;;
58972;SDS011;44750;52.040;7.472;2023-01-10T18:11:17;2.13;;;1.15;;
58972;SDS011;44750;52.040;7.472;2023-01-10T18:16:17;2.75;;;1.55;;
58972;SDS011;44750;52.040;7.472;2023-01-10T18:21:18;1.53;;;1.10;;
58972;SDS011;44750;52.040;7.472;2023-01-10T18:26:18;1.20;;;0.85;;
58972;SDS011;44750;52.040;7.472;2023-01-10T18:31:18;1.25;;;0.90;;
58972;SDS011;44750;52.040;7.472;2023-01-10T18:36:19;1.60;;;1.00;;
58972;SDS011;44750;52.040;7.472;2023-01-10T18:41:21;5.25;;;1.65;;
58972;SDS011;44750;52.040;7.472;2023-01-10T18:46:21;1.50;;;1.30;;
58972;SDS011;44750;52.040;7.472;2023-01-10T18:51:21;4.25;;;1.70;;
58972;SDS011;44750;52.040;7.472;2023-01-10T18:56:22;2.05;;;1.33;;
58972;SDS011;44750;52.040;7.472;2023-01-10T19:01:22;3.07;;;1.97;;
58972;SDS011;44750;52.040;7.472;2023-01-10T19:06:22;10.98;;;1.85;;
58972;SDS011;44750;52.040;7.472;2023-01-10T19:11:23;2.03;;;1.27;;
58972;SDS011;44750;52.040;7.472;2023-01-10T19:16:24;2.25;;;1.13;;
58972;SDS011;44750;52.040;7.472;2023-01-10T19:21:27;3.92;;;0.80;;
58972;SDS011;44750;52.040;7.472;2023-01-10T19:26:28;0.70;;;0.70;;
58972;SDS011;44750;52.040;7.472;2023-01-10T19:31:28;0.50;;;0.50;;
58972;SDS011;44750;52.040;7.472;2023-01-10T19:36:29;1.60;;;0.90;;
58972;SDS011;44750;52.040;7.472;2023-01-10T19:41:29;2.87;;;0.97;;
58972;SDS011;44750;52.040;7.472;2023-01-10T19:46:29;0.47;;;0.47;;
58972;SDS011;44750;52.040;7.472;2023-01-10T19:51:30;1.30;;;1.02;;
58972;SDS011;44750;52.040;7.472;2023-01-10T19:56:30;0.50;;;0.50;;
58972;SDS011;44750;52.040;7.472;2023-01-10T20:01:31;8.70;;;0.82;;
58972;SDS011;44750;52.040;7.472;2023-01-10T20:06:35;0.30;;;0.30;;
58972;SDS011;44750;52.040;7.472;2023-01-10T20:11:38;1.05;;;0.80;;
58972;SDS011;44750;52.040;7.472;2023-01-10T20:16:38;0.65;;;0.60;;
58972;SDS011;44750;52.040;7.472;2023-01-10T20:21:39;0.40;;;0.40;;
58972;SDS011;44750;52.040;7.472;2023-01-10T20:26:41;1.00;;;0.70;;
58972;SDS011;44750;52.040;7.472;2023-01-10T20:31:42;0.55;;;0.52;;
58972;SDS011;44750;52.040;7.472;2023-01-10T20:36:42;0.45;;;0.45;;
58972;SDS011;44750;52.040;7.472;2023-01-10T20:41:43;1.67;;;0.90;;
58972;SDS011;44750;52.040;7.472;2023-01-10T20:46:43;0.50;;;0.50;;
58972;SDS011;44750;52.040;7.472;2023-01-10T20:51:44;0.35;;;0.35;;
58972;SDS011;44750;52.040;7.472;2023-01-10T20:56:44;0.63;;;0.60;;
58972;SDS011;44750;52.040;7.472;2023-01-10T21:01:44;0.85;;;0.60;;
58972;SDS011;44750;52.040;7.472;2023-01-10T21:06:44;3.72;;;1.00;;
58972;SDS011;44750;52.040;7.472;2023-01-10T21:11:45;0.68;;;0.57;;
58972;SDS011;44750;52.040;7.472;2023-01-10T21:16:45;1.30;;;0.70;;
58972;SDS011;44750;52.040;7.472;2023-01-10T21:21:45;1.00;;;0.60;;
58972;SDS011;44750;52.040;7.472;2023-01-10T21:26:46;0.65;;;0.65;;
58972;SDS011;44750;52.040;7.472;2023-01-10T21:31:46;0.55;;;0.50;;
58972;SDS011;44750;52.040;7.472;2023-01-10T21:36:46;0.80;;;0.43;;
58972;SDS011;44750;52.040;7.472;2023-01-10T21:41:46;1.10;;;0.77;;
58972;SDS011;44750;52.040;7.472;2023-01-10T21:46:47;1.07;;;0.67;;
58972;SDS011;44750;52.040;7.472;2023-01-10T21:51:47;0.43;;;0.43;;
58972;SDS011;44750;52.040;7.472;2023-01-10T21:56:47;0.50;;;0.50;;
58972;SDS011;44750;52.040;7.472;2023-01-10T22:01:47;10.05;;;1.35;;
58972;SDS011;44750;52.040;7.472;2023-01-10T22:06:48;0.60;;;0.60;;
58972;SDS011;44750;52.040;7.472;2023-01-10T22:11:48;0.70;;;0.57;;
58972;SDS011;44750;52.040;7.472;2023-01-10T22:16:48;0.70;;;0.70;;
58972;SDS011;44750;52.040;7.472;2023-01-10T22:21:48;0.45;;;0.45;;
58972;SDS011;44750;52.040;7.472;2023-01-10T22:26:49;0.93;;;0.65;;
58972;SDS011;44750;52.040;7.472;2023-01-10T22:31:49;0.60;;;0.60;;
58972;SDS011;44750;52.040;7.472;2023-01-10T22:36:49;0.70;;;0.60;;
58972;SDS011;44750;52.040;7.472;2023-01-10T22:41:50;0.55;;;0.55;;
58972;SDS011;44750;52.040;7.472;2023-01-10T22:46:51;0.75;;;0.75;;
58972;SDS011;44750;52.040;7.472;2023-01-10T22:51:53;0.77;;;0.63;;
58972;SDS011;44750;52.040;7.472;2023-01-10T22:56:53;0.40;;;0.40;;
58972;SDS011;44750;52.040;7.472;2023-01-10T23:01:53;1.27;;;0.70;;
58972;SDS011;44750;52.040;7.472;2023-01-10T23:06:53;0.47;;;0.47;;
58972;SDS011;44750;52.040;7.472;2023-01-10T23:11:53;0.50;;;0.50;;
58972;SDS011;44750;52.040;7.472;2023-01-10T23:16:54;1.33;;;0.50;;
58972;SDS011;44750;52.040;7.472;2023-01-10T23:21:54;0.63;;;0.40;;
58972;SDS011;44750;52.040;7.472;2023-01-10T23:26:54;0.40;;;0.40;;
58972;SDS011;44750;52.040;7.472;2023-01-10T23:31:55;0.70;;;0.47;;
58972;SDS011;44750;52.040;7.472;2023-01-10T23:36:55;0.70;;;0.57;;
58972;SDS011;44750;52.040;7.472;2023-01-10T23:41:55;0.40;;;0.40;;
58972;SDS011;44750;52.040;7.472;2023-01-10T23:46:55;0.80;;;0.60;;
58972;SDS011;44750;52.040;7.472;2023-01-10T23:51:56;0.43;;;0.43;;
58972;SDS011;44750;52.040;7.472;2023-01-10T23:56:56;0.68;;;0.68;;
